sensor_id;sensor_type;location;lat;lon;timestamp;temperature;humidity
38456;DHT22;24237;50.106;20.014;2023-07-13T00:00:19;24.40;99.90
38456;DHT22;24237;50.106;20.014;2023-07-13T00:02:44;24.40;99.90
38456;DHT22;24237;50.106;20.014;2023-07-13T00:05:10;24.30;99.90
38456;DHT22;24237;50.106;20.014;2023-07-13T00:07:36;24.30;99.90
38456;DHT22;24237;50.106;20.014;2023-07-13T00:10:03;24.40;99.90
38456;DHT22;24237;50.106;20.014;2023-07-13T00:12:31;24.40;99.90
38456;DHT22;24237;50.106;20.014;2023-07-13T00:15:16;24.40;99.90
38456;DHT22;24237;50.106;20.014;2023-07-13T00:17:42;24.30;99.90
38456;DHT22;24237;50.106;20.014;2023-07-13T00:20:11;24.30;99.90
38456;DHT22;24237;50.106;20.014;2023-07-13T00:22:37;24.30;99.90
38456;DHT22;24237;50.106;20.014;2023-07-13T00:25:03;24.20;99.90
38456;DHT22;24237;50.106;20.014;2023-07-13T00:27:29;24.30;99.90
38456;DHT22;24237;50.106;20.014;2023-07-13T00:29:57;24.20;1.00
38456;DHT22;24237;50.106;20.014;2023-07-13T00:32:23;24.00;99.90
38456;DHT22;24237;50.106;20.014;2023-07-13T00:34:51;24.00;99.90
38456;DHT22;24237;50.106;20.014;2023-07-13T00:37:16;23.80;99.90
38456;DHT22;24237;50.106;20.014;2023-07-13T00:39:42;23.80;99.90
38456;DHT22;24237;50.106;20.014;2023-07-13T00:42:07;23.60;1.00
38456;DHT22;24237;50.106;20.014;2023-07-13T00:44:33;23.40;1.00
38456;DHT22;24237;50.106;20.014;2023-07-13T00:46:59;23.40;1.00
38456;DHT22;24237;50.106;20.014;2023-07-13T00:49:27;23.40;1.00
38456;DHT22;24237;50.106;20.014;2023-07-13T00:51:59;23.10;1.00
38456;DHT22;24237;50.106;20.014;2023-07-13T00:54:35;23.00;1.00
38456;DHT22;24237;50.106;20.014;2023-07-13T00:57:04;22.90;6.80
38456;DHT22;24237;50.106;20.014;2023-07-13T00:59:31;22.80;26.10
38456;DHT22;24237;50.106;20.014;2023-07-13T01:01:59;22.70;24.50
38456;DHT22;24237;50.106;20.014;2023-07-13T01:04:26;22.70;23.60
38456;DHT22;24237;50.106;20.014;2023-07-13T01:06:51;22.70;19.20
38456;DHT22;24237;50.106;20.014;2023-07-13T01:09:18;22.60;35.30
38456;DHT22;24237;50.106;20.014;2023-07-13T01:11:45;22.50;51.00
38456;DHT22;24237;50.106;20.014;2023-07-13T01:14:11;22.50;56.40
38456;DHT22;24237;50.106;20.014;2023-07-13T01:16:38;22.50;56.40
38456;DHT22;24237;50.106;20.014;2023-07-13T01:19:33;22.40;61.10
38456;DHT22;24237;50.106;20.014;2023-07-13T01:22:02;22.40;62.20
38456;DHT22;24237;50.106;20.014;2023-07-13T01:24:28;22.60;58.30
38456;DHT22;24237;50.106;20.014;2023-07-13T01:26:54;22.70;30.90
38456;DHT22;24237;50.106;20.014;2023-07-13T01:29:20;22.70;25.10
38456;DHT22;24237;50.106;20.014;2023-07-13T01:31:46;22.90;12.40
38456;DHT22;24237;50.106;20.014;2023-07-13T01:34:12;22.90;10.90
38456;DHT22;24237;50.106;20.014;2023-07-13T01:36:37;22.70;13.60
38456;DHT22;24237;50.106;20.014;2023-07-13T01:39:03;22.90;1.00
38456;DHT22;24237;50.106;20.014;2023-07-13T01:41:29;23.00;5.20
38456;DHT22;24237;50.106;20.014;2023-07-13T01:43:54;23.00;11.40
38456;DHT22;24237;50.106;20.014;2023-07-13T01:46:20;23.00;10.10
38456;DHT22;24237;50.106;20.014;2023-07-13T01:48:45;23.10;8.60
38456;DHT22;24237;50.106;20.014;2023-07-13T01:51:11;23.10;20.00
38456;DHT22;24237;50.106;20.014;2023-07-13T01:53:37;23.20;21.60
38456;DHT22;24237;50.106;20.014;2023-07-13T01:56:03;23.10;33.00
38456;DHT22;24237;50.106;20.014;2023-07-13T01:58:28;23.10;26.70
38456;DHT22;24237;50.106;20.014;2023-07-13T02:00:54;23.20;27.20
38456;DHT22;24237;50.106;20.014;2023-07-13T02:03:20;23.40;29.80
38456;DHT22;24237;50.106;20.014;2023-07-13T02:05:45;23.30;41.40
38456;DHT22;24237;50.106;20.014;2023-07-13T02:08:11;23.00;52.20
38456;DHT22;24237;50.106;20.014;2023-07-13T02:10:37;23.00;52.90
38456;DHT22;24237;50.106;20.014;2023-07-13T02:13:05;23.10;48.70
38456;DHT22;24237;50.106;20.014;2023-07-13T02:15:31;22.90;53.30
38456;DHT22;24237;50.106;20.014;2023-07-13T02:17:57;23.00;47.90
38456;DHT22;24237;50.106;20.014;2023-07-13T02:20:24;22.80;59.20
38456;DHT22;24237;50.106;20.014;2023-07-13T02:22:49;22.80;54.60
38456;DHT22;24237;50.106;20.014;2023-07-13T02:25:15;22.90;54.00
38456;DHT22;24237;50.106;20.014;2023-07-13T02:27:40;22.90;51.80
38456;DHT22;24237;50.106;20.014;2023-07-13T02:30:07;22.80;49.40
38456;DHT22;24237;50.106;20.014;2023-07-13T02:32:33;22.80;59.40
38456;DHT22;24237;50.106;20.014;2023-07-13T02:34:59;23.10;38.70
38456;DHT22;24237;50.106;20.014;2023-07-13T02:37:24;22.90;38.80
38456;DHT22;24237;50.106;20.014;2023-07-13T02:39:50;22.70;52.00
38456;DHT22;24237;50.106;20.014;2023-07-13T02:42:16;22.50;62.60
38456;DHT22;24237;50.106;20.014;2023-07-13T02:44:41;22.40;75.60
38456;DHT22;24237;50.106;20.014;2023-07-13T02:47:07;22.50;72.10
38456;DHT22;24237;50.106;20.014;2023-07-13T02:49:33;22.50;73.20
38456;DHT22;24237;50.106;20.014;2023-07-13T02:51:58;22.60;73.90
38456;DHT22;24237;50.106;20.014;2023-07-13T02:54:24;22.50;73.50
38456;DHT22;24237;50.106;20.014;2023-07-13T02:56:49;22.60;56.40
38456;DHT22;24237;50.106;20.014;2023-07-13T02:59:15;22.40;64.70
38456;DHT22;24237;50.106;20.014;2023-07-13T03:01:41;22.70;49.60
38456;DHT22;24237;50.106;20.014;2023-07-13T03:04:06;22.80;18.60
38456;DHT22;24237;50.106;20.014;2023-07-13T03:06:33;22.60;41.40
38456;DHT22;24237;50.106;20.014;2023-07-13T03:08:59;22.60;58.40
38456;DHT22;24237;50.106;20.014;2023-07-13T03:11:25;22.50;66.90
38456;DHT22;24237;50.106;20.014;2023-07-13T03:13:52;22.30;78.10
38456;DHT22;24237;50.106;20.014;2023-07-13T03:16:18;22.50;79.20
38456;DHT22;24237;50.106;20.014;2023-07-13T03:18:45;22.40;80.30
38456;DHT22;24237;50.106;20.014;2023-07-13T03:21:11;22.30;83.30
38456;DHT22;24237;50.106;20.014;2023-07-13T03:23:36;22.20;86.70
38456;DHT22;24237;50.106;20.014;2023-07-13T03:26:08;22.30;83.80
38456;DHT22;24237;50.106;20.014;2023-07-13T03:28:34;22.50;81.80
38456;DHT22;24237;50.106;20.014;2023-07-13T03:31:02;22.70;50.70
38456;DHT22;24237;50.106;20.014;2023-07-13T03:33:28;22.50;63.90
38456;DHT22;24237;50.106;20.014;2023-07-13T03:35:54;22.30;73.30
38456;DHT22;24237;50.106;20.014;2023-07-13T03:38:20;22.30;75.50
38456;DHT22;24237;50.106;20.014;2023-07-13T03:40:45;22.50;62.70
38456;DHT22;24237;50.106;20.014;2023-07-13T03:43:11;22.60;58.20
38456;DHT22;24237;50.106;20.014;2023-07-13T03:45:38;22.50;52.80
38456;DHT22;24237;50.106;20.014;2023-07-13T03:48:04;22.60;44.40
38456;DHT22;24237;50.106;20.014;2023-07-13T03:50:30;22.60;45.70
38456;DHT22;24237;50.106;20.014;2023-07-13T03:52:57;22.40;58.40
38456;DHT22;24237;50.106;20.014;2023-07-13T03:55:23;22.50;60.90
38456;DHT22;24237;50.106;20.014;2023-07-13T03:57:58;22.40;66.80
38456;DHT22;24237;50.106;20.014;2023-07-13T04:00:24;22.60;54.50
38456;DHT22;24237;50.106;20.014;2023-07-13T04:02:50;22.50;53.60
38456;DHT22;24237;50.106;20.014;2023-07-13T04:05:15;22.50;60.10
38456;DHT22;24237;50.106;20.014;2023-07-13T04:07:41;22.50;53.90
38456;DHT22;24237;50.106;20.014;2023-07-13T04:10:07;22.70;52.90
38456;DHT22;24237;50.106;20.014;2023-07-13T04:12:33;23.00;29.60
38456;DHT22;24237;50.106;20.014;2023-07-13T04:14:58;23.00;6.80
38456;DHT22;24237;50.106;20.014;2023-07-13T04:17:24;23.10;1.00
38456;DHT22;24237;50.106;20.014;2023-07-13T04:19:50;23.20;1.00
38456;DHT22;24237;50.106;20.014;2023-07-13T04:22:15;23.60;1.00
38456;DHT22;24237;50.106;20.014;2023-07-13T04:24:41;23.60;1.00
38456;DHT22;24237;50.106;20.014;2023-07-13T04:27:07;23.60;1.00
38456;DHT22;24237;50.106;20.014;2023-07-13T04:29:32;23.50;1.00
38456;DHT22;24237;50.106;20.014;2023-07-13T04:32:04;23.60;1.00
38456;DHT22;24237;50.106;20.014;2023-07-13T04:34:30;24.00;1.00
38456;DHT22;24237;50.106;20.014;2023-07-13T04:36:56;24.20;1.00
38456;DHT22;24237;50.106;20.014;2023-07-13T04:39:22;24.40;99.90
38456;DHT22;24237;50.106;20.014;2023-07-13T04:41:47;24.70;99.90
38456;DHT22;24237;50.106;20.014;2023-07-13T04:44:13;24.90;99.90
38456;DHT22;24237;50.106;20.014;2023-07-13T04:46:38;25.00;99.90
38456;DHT22;24237;50.106;20.014;2023-07-13T04:49:04;25.20;99.90
38456;DHT22;24237;50.106;20.014;2023-07-13T04:51:30;24.80;99.90
38456;DHT22;24237;50.106;20.014;2023-07-13T04:53:55;24.70;99.90
38456;DHT22;24237;50.106;20.014;2023-07-13T04:56:21;24.80;99.90
38456;DHT22;24237;50.106;20.014;2023-07-13T04:58:46;25.00;99.90
38456;DHT22;24237;50.106;20.014;2023-07-13T05:01:12;25.10;99.90
38456;DHT22;24237;50.106;20.014;2023-07-13T05:03:39;25.00;75.10
38456;DHT22;24237;50.106;20.014;2023-07-13T05:06:07;24.90;94.70
38456;DHT22;24237;50.106;20.014;2023-07-13T05:08:33;24.90;99.90
38456;DHT22;24237;50.106;20.014;2023-07-13T05:11:04;25.30;1.00
38456;DHT22;24237;50.106;20.014;2023-07-13T05:13:30;25.30;25.40
38456;DHT22;24237;50.106;20.014;2023-07-13T05:15:59;25.20;3.90
38456;DHT22;24237;50.106;20.014;2023-07-13T05:18:25;25.00;99.90
38456;DHT22;24237;50.106;20.014;2023-07-13T05:21:03;25.00;97.80
38456;DHT22;24237;50.106;20.014;2023-07-13T05:23:29;25.30;1.00
38456;DHT22;24237;50.106;20.014;2023-07-13T05:25:55;25.70;99.90
38456;DHT22;24237;50.106;20.014;2023-07-13T05:28:21;25.80;99.90
38456;DHT22;24237;50.106;20.014;2023-07-13T05:30:49;25.80;99.90
38456;DHT22;24237;50.106;20.014;2023-07-13T05:33:14;25.70;99.90
38456;DHT22;24237;50.106;20.014;2023-07-13T05:35:40;25.80;99.90
38456;DHT22;24237;50.106;20.014;2023-07-13T05:38:05;25.70;99.90
38456;DHT22;24237;50.106;20.014;2023-07-13T05:40:31;25.80;99.90
38456;DHT22;24237;50.106;20.014;2023-07-13T05:42:57;25.90;1.00
38456;DHT22;24237;50.106;20.014;2023-07-13T05:45:22;26.40;1.00
38456;DHT22;24237;50.106;20.014;2023-07-13T05:47:48;26.40;1.00
38456;DHT22;24237;50.106;20.014;2023-07-13T05:50:14;26.40;99.90
38456;DHT22;24237;50.106;20.014;2023-07-13T05:52:39;26.30;99.90
38456;DHT22;24237;50.106;20.014;2023-07-13T05:55:05;26.20;1.00
38456;DHT22;24237;50.106;20.014;2023-07-13T05:57:31;26.00;44.20
38456;DHT22;24237;50.106;20.014;2023-07-13T05:59:57;26.00;99.90
38456;DHT22;24237;50.106;20.014;2023-07-13T06:02:22;26.30;1.00
38456;DHT22;24237;50.106;20.014;2023-07-13T06:04:48;26.30;99.90
38456;DHT22;24237;50.106;20.014;2023-07-13T06:07:14;26.20;99.90
38456;DHT22;24237;50.106;20.014;2023-07-13T06:09:40;26.20;99.90
38456;DHT22;24237;50.106;20.014;2023-07-13T06:12:05;26.20;99.90
38456;DHT22;24237;50.106;20.014;2023-07-13T06:14:31;26.40;99.90
38456;DHT22;24237;50.106;20.014;2023-07-13T06:16:57;26.70;99.90
38456;DHT22;24237;50.106;20.014;2023-07-13T06:19:22;26.60;99.90
38456;DHT22;24237;50.106;20.014;2023-07-13T06:21:48;26.80;99.90
38456;DHT22;24237;50.106;20.014;2023-07-13T06:24:13;26.80;99.90
38456;DHT22;24237;50.106;20.014;2023-07-13T06:26:39;26.90;1.00
38456;DHT22;24237;50.106;20.014;2023-07-13T06:29:04;26.80;17.90
38456;DHT22;24237;50.106;20.014;2023-07-13T06:31:31;26.60;99.90
38456;DHT22;24237;50.106;20.014;2023-07-13T06:33:56;26.70;99.90
38456;DHT22;24237;50.106;20.014;2023-07-13T06:36:22;26.60;79.20
38456;DHT22;24237;50.106;20.014;2023-07-13T06:38:47;26.70;21.90
38456;DHT22;24237;50.106;20.014;2023-07-13T06:41:13;27.10;1.00
38456;DHT22;24237;50.106;20.014;2023-07-13T06:43:38;27.00;99.90
38456;DHT22;24237;50.106;20.014;2023-07-13T06:46:04;27.20;99.90
38456;DHT22;24237;50.106;20.014;2023-07-13T06:48:30;27.20;99.90
38456;DHT22;24237;50.106;20.014;2023-07-13T06:50:55;27.60;1.00
38456;DHT22;24237;50.106;20.014;2023-07-13T06:53:21;28.00;99.90
38456;DHT22;24237;50.106;20.014;2023-07-13T06:55:48;28.20;92.20
38456;DHT22;24237;50.106;20.014;2023-07-13T06:58:16;28.50;1.00
38456;DHT22;24237;50.106;20.014;2023-07-13T07:00:41;28.30;99.90
38456;DHT22;24237;50.106;20.014;2023-07-13T07:03:07;28.20;99.90
38456;DHT22;24237;50.106;20.014;2023-07-13T07:05:33;28.40;99.90
38456;DHT22;24237;50.106;20.014;2023-07-13T07:07:59;28.50;21.20
38456;DHT22;24237;50.106;20.014;2023-07-13T07:10:25;28.70;1.00
38456;DHT22;24237;50.106;20.014;2023-07-13T07:12:50;28.90;1.00
38456;DHT22;24237;50.106;20.014;2023-07-13T07:15:17;29.00;99.90
38456;DHT22;24237;50.106;20.014;2023-07-13T07:17:43;28.70;99.90
38456;DHT22;24237;50.106;20.014;2023-07-13T07:20:09;28.20;99.90
38456;DHT22;24237;50.106;20.014;2023-07-13T07:22:35;28.30;99.90
38456;DHT22;24237;50.106;20.014;2023-07-13T07:25:01;28.40;99.90
38456;DHT22;24237;50.106;20.014;2023-07-13T07:27:26;28.30;99.90
38456;DHT22;24237;50.106;20.014;2023-07-13T07:29:52;28.00;99.90
38456;DHT22;24237;50.106;20.014;2023-07-13T07:32:19;28.40;99.90
38456;DHT22;24237;50.106;20.014;2023-07-13T07:34:45;28.20;99.90
38456;DHT22;24237;50.106;20.014;2023-07-13T07:37:12;28.00;99.90
38456;DHT22;24237;50.106;20.014;2023-07-13T07:39:38;28.00;99.90
38456;DHT22;24237;50.106;20.014;2023-07-13T07:42:04;28.20;99.90
38456;DHT22;24237;50.106;20.014;2023-07-13T07:44:31;28.50;93.30
38456;DHT22;24237;50.106;20.014;2023-07-13T07:46:57;28.80;99.90
38456;DHT22;24237;50.106;20.014;2023-07-13T07:49:23;29.00;1.00
38456;DHT22;24237;50.106;20.014;2023-07-13T07:51:48;28.90;99.90
38456;DHT22;24237;50.106;20.014;2023-07-13T07:54:14;28.60;1.00
38456;DHT22;24237;50.106;20.014;2023-07-13T07:56:40;28.70;99.90
38456;DHT22;24237;50.106;20.014;2023-07-13T07:59:06;28.90;1.00
38456;DHT22;24237;50.106;20.014;2023-07-13T08:01:31;28.40;99.90
38456;DHT22;24237;50.106;20.014;2023-07-13T08:03:57;28.70;1.00
38456;DHT22;24237;50.106;20.014;2023-07-13T08:06:23;28.70;1.00
38456;DHT22;24237;50.106;20.014;2023-07-13T08:08:48;28.80;1.00
38456;DHT22;24237;50.106;20.014;2023-07-13T08:11:14;29.00;66.00
38456;DHT22;24237;50.106;20.014;2023-07-13T08:13:40;28.90;94.20
38456;DHT22;24237;50.106;20.014;2023-07-13T08:16:06;29.00;99.90
38456;DHT22;24237;50.106;20.014;2023-07-13T08:18:31;29.10;99.90
38456;DHT22;24237;50.106;20.014;2023-07-13T08:20:57;29.60;99.90
38456;DHT22;24237;50.106;20.014;2023-07-13T08:23:24;29.50;99.90
38456;DHT22;24237;50.106;20.014;2023-07-13T08:25:53;29.50;99.90
38456;DHT22;24237;50.106;20.014;2023-07-13T08:28:20;30.00;99.90
38456;DHT22;24237;50.106;20.014;2023-07-13T08:30:46;30.40;99.90
38456;DHT22;24237;50.106;20.014;2023-07-13T08:33:17;30.30;99.90
38456;DHT22;24237;50.106;20.014;2023-07-13T08:35:46;30.10;99.90
38456;DHT22;24237;50.106;20.014;2023-07-13T08:38:13;30.10;99.90
38456;DHT22;24237;50.106;20.014;2023-07-13T08:40:39;30.30;99.90
38456;DHT22;24237;50.106;20.014;2023-07-13T08:43:12;30.30;99.90
38456;DHT22;24237;50.106;20.014;2023-07-13T08:46:34;30.40;99.90
38456;DHT22;24237;50.106;20.014;2023-07-13T08:49:09;31.00;99.90
38456;DHT22;24237;50.106;20.014;2023-07-13T08:51:46;31.40;99.90
38456;DHT22;24237;50.106;20.014;2023-07-13T08:54:29;31.50;99.40
38456;DHT22;24237;50.106;20.014;2023-07-13T08:56:58;30.80;99.50
38456;DHT22;24237;50.106;20.014;2023-07-13T08:59:27;30.10;99.90
38456;DHT22;24237;50.106;20.014;2023-07-13T09:05:08;30.20;99.90
38456;DHT22;24237;50.106;20.014;2023-07-13T09:10:31;30.60;99.60
38456;DHT22;24237;50.106;20.014;2023-07-13T09:15:50;30.50;99.90
38456;DHT22;24237;50.106;20.014;2023-07-13T09:18:42;30.30;99.90
38456;DHT22;24237;50.106;20.014;2023-07-13T09:21:15;30.60;99.80
38456;DHT22;24237;50.106;20.014;2023-07-13T09:23:42;30.50;99.80
38456;DHT22;24237;50.106;20.014;2023-07-13T09:26:20;29.90;99.90
38456;DHT22;24237;50.106;20.014;2023-07-13T09:28:50;29.90;99.90
38456;DHT22;24237;50.106;20.014;2023-07-13T09:31:28;29.60;99.90
38456;DHT22;24237;50.106;20.014;2023-07-13T09:33:56;29.10;99.90
38456;DHT22;24237;50.106;20.014;2023-07-13T09:36:29;28.90;99.90
38456;DHT22;24237;50.106;20.014;2023-07-13T09:42:03;28.70;99.90
38456;DHT22;24237;50.106;20.014;2023-07-13T09:44:38;29.00;99.90
38456;DHT22;24237;50.106;20.014;2023-07-13T09:47:15;29.10;99.90
38456;DHT22;24237;50.106;20.014;2023-07-13T09:49:41;29.10;99.90
38456;DHT22;24237;50.106;20.014;2023-07-13T09:52:11;28.90;99.90
38456;DHT22;24237;50.106;20.014;2023-07-13T09:54:37;28.90;99.90
38456;DHT22;24237;50.106;20.014;2023-07-13T09:57:12;28.90;99.90
38456;DHT22;24237;50.106;20.014;2023-07-13T09:59:43;29.30;99.90
38456;DHT22;24237;50.106;20.014;2023-07-13T10:02:40;28.80;99.90
38456;DHT22;24237;50.106;20.014;2023-07-13T10:05:11;28.50;99.90
38456;DHT22;24237;50.106;20.014;2023-07-13T10:07:43;28.80;99.90
38456;DHT22;24237;50.106;20.014;2023-07-13T10:10:21;28.40;99.90
38456;DHT22;24237;50.106;20.014;2023-07-13T10:12:49;28.20;99.90
38456;DHT22;24237;50.106;20.014;2023-07-13T10:15:17;28.10;99.90
38456;DHT22;24237;50.106;20.014;2023-07-13T10:17:43;28.00;99.90
38456;DHT22;24237;50.106;20.014;2023-07-13T10:20:09;27.80;99.90
38456;DHT22;24237;50.106;20.014;2023-07-13T10:22:54;27.40;99.90
38456;DHT22;24237;50.106;20.014;2023-07-13T10:25:25;27.20;99.90
38456;DHT22;24237;50.106;20.014;2023-07-13T10:27:53;26.70;99.90
38456;DHT22;24237;50.106;20.014;2023-07-13T10:30:26;26.30;99.90
38456;DHT22;24237;50.106;20.014;2023-07-13T10:32:57;26.00;99.90
38456;DHT22;24237;50.106;20.014;2023-07-13T10:35:23;25.80;99.90
38456;DHT22;24237;50.106;20.014;2023-07-13T10:38:03;25.70;99.90
38456;DHT22;24237;50.106;20.014;2023-07-13T10:41:08;25.80;99.90
38456;DHT22;24237;50.106;20.014;2023-07-13T10:43:43;25.80;99.90
38456;DHT22;24237;50.106;20.014;2023-07-13T10:46:13;25.70;99.90
38456;DHT22;24237;50.106;20.014;2023-07-13T10:48:40;25.70;99.90
38456;DHT22;24237;50.106;20.014;2023-07-13T10:51:08;25.70;99.90
38456;DHT22;24237;50.106;20.014;2023-07-13T10:53:37;25.70;99.90
38456;DHT22;24237;50.106;20.014;2023-07-13T10:58:38;25.50;99.90
38456;DHT22;24237;50.106;20.014;2023-07-13T11:01:15;25.10;99.90
38456;DHT22;24237;50.106;20.014;2023-07-13T11:03:50;25.00;99.90
38456;DHT22;24237;50.106;20.014;2023-07-13T11:08:58;24.90;99.90
38456;DHT22;24237;50.106;20.014;2023-07-13T11:18:45;24.80;1.00
38456;DHT22;24237;50.106;20.014;2023-07-13T11:21:16;24.80;1.00
38456;DHT22;24237;50.106;20.014;2023-07-13T11:23:44;24.70;1.00
38456;DHT22;24237;50.106;20.014;2023-07-13T11:26:42;24.60;1.00
38456;DHT22;24237;50.106;20.014;2023-07-13T11:29:33;24.50;1.00
38456;DHT22;24237;50.106;20.014;2023-07-13T11:32:24;24.20;19.30
38456;DHT22;24237;50.106;20.014;2023-07-13T11:34:53;24.00;33.40
38456;DHT22;24237;50.106;20.014;2023-07-13T11:37:19;23.90;37.20
38456;DHT22;24237;50.106;20.014;2023-07-13T11:39:46;24.00;37.80
38456;DHT22;24237;50.106;20.014;2023-07-13T11:42:14;23.70;13.90
38456;DHT22;24237;50.106;20.014;2023-07-13T11:44:46;22.10;92.10
38456;DHT22;24237;50.106;20.014;2023-07-13T11:47:18;21.20;99.90
38456;DHT22;24237;50.106;20.014;2023-07-13T11:49:49;20.70;99.90
38456;DHT22;24237;50.106;20.014;2023-07-13T11:52:21;19.50;99.90
38456;DHT22;24237;50.106;20.014;2023-07-13T11:54:55;18.90;99.90
38456;DHT22;24237;50.106;20.014;2023-07-13T11:57:25;18.60;99.90
38456;DHT22;24237;50.106;20.014;2023-07-13T11:59:52;18.50;99.90
38456;DHT22;24237;50.106;20.014;2023-07-13T12:02:36;18.50;99.90
38456;DHT22;24237;50.106;20.014;2023-07-13T12:05:03;18.30;99.90
38456;DHT22;24237;50.106;20.014;2023-07-13T12:07:31;18.10;99.90
38456;DHT22;24237;50.106;20.014;2023-07-13T12:10:24;18.20;99.90
38456;DHT22;24237;50.106;20.014;2023-07-13T12:12:54;18.30;99.90
38456;DHT22;24237;50.106;20.014;2023-07-13T12:15:22;18.40;99.90
38456;DHT22;24237;50.106;20.014;2023-07-13T12:17:49;18.50;99.90
38456;DHT22;24237;50.106;20.014;2023-07-13T12:20:25;18.40;99.90
38456;DHT22;24237;50.106;20.014;2023-07-13T12:22:52;18.30;99.90
38456;DHT22;24237;50.106;20.014;2023-07-13T12:25:19;18.40;99.90
38456;DHT22;24237;50.106;20.014;2023-07-13T12:27:49;18.40;99.90
38456;DHT22;24237;50.106;20.014;2023-07-13T12:30:28;18.40;99.90
38456;DHT22;24237;50.106;20.014;2023-07-13T12:32:58;18.40;99.90
38456;DHT22;24237;50.106;20.014;2023-07-13T12:35:24;18.70;99.90
38456;DHT22;24237;50.106;20.014;2023-07-13T12:37:51;18.60;99.90
38456;DHT22;24237;50.106;20.014;2023-07-13T12:40:20;18.80;99.90
38456;DHT22;24237;50.106;20.014;2023-07-13T12:42:49;19.00;99.90
38456;DHT22;24237;50.106;20.014;2023-07-13T12:45:20;19.10;99.90
38456;DHT22;24237;50.106;20.014;2023-07-13T12:47:49;19.30;99.90
38456;DHT22;24237;50.106;20.014;2023-07-13T12:50:19;19.40;99.90
38456;DHT22;24237;50.106;20.014;2023-07-13T12:52:54;19.40;99.90
38456;DHT22;24237;50.106;20.014;2023-07-13T12:55:21;19.40;99.90
38456;DHT22;24237;50.106;20.014;2023-07-13T13:00:36;19.70;99.90
38456;DHT22;24237;50.106;20.014;2023-07-13T13:03:31;19.80;99.90
38456;DHT22;24237;50.106;20.014;2023-07-13T13:05:59;19.90;99.90
38456;DHT22;24237;50.106;20.014;2023-07-13T13:08:25;20.20;84.70
38456;DHT22;24237;50.106;20.014;2023-07-13T13:10:51;20.20;83.00
38456;DHT22;24237;50.106;20.014;2023-07-13T13:13:17;20.00;86.60
38456;DHT22;24237;50.106;20.014;2023-07-13T13:15:42;20.10;97.10
38456;DHT22;24237;50.106;20.014;2023-07-13T13:18:19;20.20;93.50
38456;DHT22;24237;50.106;20.014;2023-07-13T13:20:45;20.30;93.60
38456;DHT22;24237;50.106;20.014;2023-07-13T13:23:13;20.50;67.60
38456;DHT22;24237;50.106;20.014;2023-07-13T13:25:44;20.70;40.40
38456;DHT22;24237;50.106;20.014;2023-07-13T13:28:14;20.80;37.80
38456;DHT22;24237;50.106;20.014;2023-07-13T13:30:42;20.70;66.00
38456;DHT22;24237;50.106;20.014;2023-07-13T13:33:13;21.00;54.60
38456;DHT22;24237;50.106;20.014;2023-07-13T13:35:40;21.10;62.00
38456;DHT22;24237;50.106;20.014;2023-07-13T13:38:14;21.40;27.10
38456;DHT22;24237;50.106;20.014;2023-07-13T13:40:41;21.50;6.20
38456;DHT22;24237;50.106;20.014;2023-07-13T13:45:45;21.60;1.00
38456;DHT22;24237;50.106;20.014;2023-07-13T13:48:17;21.50;1.00
38456;DHT22;24237;50.106;20.014;2023-07-13T13:50:43;21.30;1.00
38456;DHT22;24237;50.106;20.014;2023-07-13T13:53:12;21.50;1.00
38456;DHT22;24237;50.106;20.014;2023-07-13T13:55:39;21.60;1.00
38456;DHT22;24237;50.106;20.014;2023-07-13T13:58:04;21.50;1.00
38456;DHT22;24237;50.106;20.014;2023-07-13T14:00:30;21.70;1.00
38456;DHT22;24237;50.106;20.014;2023-07-13T14:02:56;21.80;1.00
38456;DHT22;24237;50.106;20.014;2023-07-13T14:05:24;21.90;1.00
38456;DHT22;24237;50.106;20.014;2023-07-13T14:07:54;22.00;1.00
38456;DHT22;24237;50.106;20.014;2023-07-13T14:10:20;21.90;1.00
38456;DHT22;24237;50.106;20.014;2023-07-13T14:12:48;21.90;1.00
38456;DHT22;24237;50.106;20.014;2023-07-13T14:15:27;21.90;1.00
38456;DHT22;24237;50.106;20.014;2023-07-13T14:17:54;21.90;1.00
38456;DHT22;24237;50.106;20.014;2023-07-13T14:20:21;22.30;1.00
38456;DHT22;24237;50.106;20.014;2023-07-13T14:22:49;22.40;1.00
38456;DHT22;24237;50.106;20.014;2023-07-13T14:25:16;22.30;1.00
38456;DHT22;24237;50.106;20.014;2023-07-13T14:27:43;22.40;1.00
38456;DHT22;24237;50.106;20.014;2023-07-13T14:30:21;22.70;99.90
38456;DHT22;24237;50.106;20.014;2023-07-13T14:32:47;22.90;99.90
38456;DHT22;24237;50.106;20.014;2023-07-13T14:35:15;23.10;99.90
38456;DHT22;24237;50.106;20.014;2023-07-13T14:37:42;22.90;99.90
38456;DHT22;24237;50.106;20.014;2023-07-13T14:40:17;22.90;99.90
38456;DHT22;24237;50.106;20.014;2023-07-13T14:42:43;23.00;99.90
38456;DHT22;24237;50.106;20.014;2023-07-13T14:45:16;23.00;99.90
38456;DHT22;24237;50.106;20.014;2023-07-13T14:47:43;23.20;99.90
38456;DHT22;24237;50.106;20.014;2023-07-13T14:50:20;23.40;41.90
38456;DHT22;24237;50.106;20.014;2023-07-13T14:52:47;24.00;99.90
38456;DHT22;24237;50.106;20.014;2023-07-13T14:55:17;24.50;77.30
38456;DHT22;24237;50.106;20.014;2023-07-13T14:57:43;24.30;1.00
38456;DHT22;24237;50.106;20.014;2023-07-13T15:00:20;24.40;99.90
38456;DHT22;24237;50.106;20.014;2023-07-13T15:02:56;25.00;1.00
38456;DHT22;24237;50.106;20.014;2023-07-13T15:05:25;24.80;1.00
38456;DHT22;24237;50.106;20.014;2023-07-13T15:07:53;24.30;99.90
38456;DHT22;24237;50.106;20.014;2023-07-13T15:10:21;24.30;99.90
38456;DHT22;24237;50.106;20.014;2023-07-13T15:12:47;24.20;1.00
38456;DHT22;24237;50.106;20.014;2023-07-13T15:15:13;24.30;1.00
38456;DHT22;24237;50.106;20.014;2023-07-13T15:17:41;24.70;99.90
38456;DHT22;24237;50.106;20.014;2023-07-13T15:20:33;24.50;99.90
38456;DHT22;24237;50.106;20.014;2023-07-13T15:23:00;24.10;1.00
38456;DHT22;24237;50.106;20.014;2023-07-13T15:25:29;23.80;99.90
38456;DHT22;24237;50.106;20.014;2023-07-13T15:27:57;23.60;99.90
38456;DHT22;24237;50.106;20.014;2023-07-13T15:30:26;23.50;1.00
38456;DHT22;24237;50.106;20.014;2023-07-13T15:32:52;23.10;99.90
38456;DHT22;24237;50.106;20.014;2023-07-13T15:35:20;22.90;99.90
38456;DHT22;24237;50.106;20.014;2023-07-13T15:37:47;22.80;99.90
38456;DHT22;24237;50.106;20.014;2023-07-13T15:40:13;22.30;99.90
38456;DHT22;24237;50.106;20.014;2023-07-13T15:42:40;22.50;99.90
38456;DHT22;24237;50.106;20.014;2023-07-13T15:45:21;23.50;99.90
38456;DHT22;24237;50.106;20.014;2023-07-13T15:47:48;24.50;99.90
38456;DHT22;24237;50.106;20.014;2023-07-13T15:50:22;25.20;1.00
38456;DHT22;24237;50.106;20.014;2023-07-13T15:52:50;25.50;30.10
38456;DHT22;24237;50.106;20.014;2023-07-13T15:55:17;25.90;99.90
38456;DHT22;24237;50.106;20.014;2023-07-13T15:57:46;26.20;1.00